Time;durP1;ratioP1;P1;durP2;ratioP2;P2;SDS_P1;SDS_P2;PMS_P1;PMS_P2;Temp;Humidity;BMP_temperature;BMP_pressure;BME280_temperature;BME280_humidity;BME280_pressure;Samples;Min_cycle;Max_cycle;Signal;HPM_P1;HPM_P2
2021/07/10 00:01:00;;;;;;;11.63;9.45;;;18.50;77.90;;;;;;5067405;28;20028;-82
2021/07/10 00:03:26;;;;;;;13.45;9.05;;;18.50;76.60;;;;;;5068672;28;20136;-82
2021/07/10 00:05:51;;;;;;;10.85;8.80;;;18.40;77.00;;;;;;5065286;28;20112;-82
2021/07/10 00:08:17;;;;;;;10.95;9.73;;;18.40;77.80;;;;;;5067744;28;20514;-81
2021/07/10 00:10:42;;;;;;;13.65;9.55;;;18.30;78.30;;;;;;5068011;28;20076;-82
2021/07/10 00:13:08;;;;;;;10.13;8.80;;;18.30;77.90;;;;;;5034826;28;20122;-82
2021/07/10 00:15:34;;;;;;;16.38;11.88;;;18.40;77.90;;;;;;5081358;28;20040;-82
2021/07/10 00:17:59;;;;;;;14.30;10.52;;;18.10;77.70;;;;;;5067281;28;20150;-81
2021/07/10 00:20:25;;;;;;;14.05;12.48;;;17.90;77.90;;;;;;5049433;28;20074;-82
2021/07/10 00:22:50;;;;;;;16.58;12.85;;;17.90;78.30;;;;;;5069795;28;20493;-83
2021/07/10 00:25:17;;;;;;;16.45;12.63;;;17.80;79.50;;;;;;5073273;28;20435;-83
2021/07/10 00:27:43;;;;;;;11.90;9.85;;;17.80;78.60;;;;;;5072647;28;20032;-83
2021/07/10 00:30:09;;;;;;;15.00;11.52;;;17.70;78.50;;;;;;5072265;28;20031;-83
2021/07/10 00:32:35;;;;;;;17.02;11.45;;;17.50;77.60;;;;;;5087444;28;20028;-83
2021/07/10 00:35:00;;;;;;;12.57;9.77;;;17.40;77.80;;;;;;5089859;28;20027;-83
2021/07/10 00:37:26;;;;;;;16.20;11.55;;;17.40;79.80;;;;;;5070684;28;20036;-83
2021/07/10 00:39:51;;;;;;;12.35;8.70;;;17.40;78.60;;;;;;5056347;28;20391;-84
2021/07/10 00:42:21;;;;;;;18.02;12.82;;;17.40;78.00;;;;;;5068188;28;20032;-84
2021/07/10 00:44:47;;;;;;;18.77;13.10;;;17.40;78.70;;;;;;5083472;28;20055;-84
2021/07/10 00:47:12;;;;;;;11.60;9.15;;;17.30;78.40;;;;;;5070110;28;20031;-84
2021/07/10 00:49:38;;;;;;;13.07;11.07;;;17.10;78.80;;;;;;5073645;28;20168;-84
2021/07/10 00:52:04;;;;;;;14.18;12.23;;;17.10;79.00;;;;;;5070846;28;20066;-84
2021/07/10 00:54:29;;;;;;;13.50;10.27;;;17.10;79.80;;;;;;5090600;28;20125;-84
2021/07/10 00:56:58;;;;;;;15.85;10.80;;;17.10;81.10;;;;;;5089864;28;20432;-84
2021/07/10 00:59:29;;;;;;;14.02;11.10;;;17.10;81.10;;;;;;5055104;28;20016;-84
2021/07/10 01:01:55;;;;;;;16.95;12.45;;;17.10;81.20;;;;;;5065563;28;20025;-84
2021/07/10 01:04:21;;;;;;;11.07;9.60;;;17.00;79.40;;;;;;5066616;28;20051;-83
2021/07/10 01:06:47;;;;;;;15.55;13.38;;;16.80;81.40;;;;;;5070356;28;20028;-84
2021/07/10 01:09:13;;;;;;;15.77;13.63;;;16.90;80.70;;;;;;5068772;28;20547;-84
2021/07/10 01:11:39;;;;;;;16.23;14.10;;;16.80;80.10;;;;;;5070114;28;20043;-84
2021/07/10 01:14:04;;;;;;;11.63;9.77;;;16.80;80.90;;;;;;5069734;28;20415;-84
2021/07/10 01:16:30;;;;;;;10.68;8.75;;;16.70;81.50;;;;;;5087561;28;20036;-84
2021/07/10 01:18:55;;;;;;;14.15;11.00;;;16.70;82.30;;;;;;5069521;28;20032;-84
2021/07/10 01:21:21;;;;;;;15.43;12.80;;;16.80;81.70;;;;;;5085137;28;20039;-83
2021/07/10 01:23:48;;;;;;;17.08;14.77;;;16.80;83.10;;;;;;5073789;28;20055;-85
2021/07/10 01:26:14;;;;;;;16.10;11.60;;;16.70;83.90;;;;;;5076233;28;20073;-84
2021/07/10 01:28:39;;;;;;;13.40;11.45;;;16.60;82.90;;;;;;5053719;28;20507;-84
2021/07/10 01:31:05;;;;;;;14.50;12.48;;;16.60;82.90;;;;;;5067971;28;20039;-83
2021/07/10 01:33:31;;;;;;;11.23;9.35;;;16.60;84.30;;;;;;5068682;27;20119;-84
2021/07/10 01:35:56;;;;;;;13.18;10.82;;;16.60;83.20;;;;;;5071631;28;20028;-84
2021/07/10 01:38:22;;;;;;;11.80;10.20;;;16.60;82.90;;;;;;5069626;27;20436;-84
2021/07/10 01:40:47;;;;;;;13.00;10.27;;;16.50;82.40;;;;;;5053033;28;20054;-84
2021/07/10 01:43:13;;;;;;;12.88;10.88;;;16.60;83.20;;;;;;5070581;28;20084;-84
2021/07/10 01:45:39;;;;;;;15.00;11.93;;;16.70;83.80;;;;;;5072582;28;20036;-84
2021/07/10 01:48:05;;;;;;;13.95;10.40;;;16.40;83.00;;;;;;5067561;28;20423;-84
2021/07/10 01:50:30;;;;;;;14.88;11.27;;;16.50;85.40;;;;;;5068582;28;20039;-84
2021/07/10 01:52:56;;;;;;;18.30;13.05;;;16.50;84.50;;;;;;5052811;28;20040;-82
2021/07/10 01:55:22;;;;;;;19.67;14.20;;;16.40;85.10;;;;;;5073476;27;20038;-84
2021/07/10 01:57:50;;;;;;;19.67;14.85;;;16.20;83.60;;;;;;5071017;28;20027;-84
2021/07/10 02:00:17;;;;;;;13.60;10.98;;;16.00;83.20;;;;;;5070111;28;20040;-84
2021/07/10 02:02:42;;;;;;;17.02;14.23;;;16.00;83.30;;;;;;5084406;28;20025;-84
2021/07/10 02:05:09;;;;;;;14.23;12.52;;;15.90;83.50;;;;;;5053778;28;20635;-84
2021/07/10 02:07:34;;;;;;;17.02;15.20;;;15.90;83.60;;;;;;5068172;28;20032;-84
2021/07/10 02:10:00;;;;;;;25.15;15.38;;;15.80;84.90;;;;;;5069466;28;20035;-84
2021/07/10 02:12:25;;;;;;;19.55;15.68;;;15.70;85.30;;;;;;5067637;27;20073;-80
2021/07/10 02:14:51;;;;;;;14.55;12.52;;;15.80;84.10;;;;;;5082362;28;20061;-79
2021/07/10 02:17:17;;;;;;;12.32;11.02;;;15.70;84.20;;;;;;5067497;28;20548;-79
2021/07/10 02:19:42;;;;;;;11.00;9.60;;;15.80;84.80;;;;;;5071785;28;20035;-79
2021/07/10 02:22:08;;;;;;;18.60;15.50;;;15.90;84.60;;;;;;5069546;28;20118;-79
2021/07/10 02:24:34;;;;;;;17.73;12.07;;;15.80;84.40;;;;;;5054190;27;20052;-80
2021/07/10 02:27:00;;;;;;;19.17;16.02;;;15.80;85.20;;;;;;5071323;28;20036;-79
2021/07/10 02:29:25;;;;;;;15.25;12.65;;;15.70;85.80;;;;;;5083492;27;20082;-79
2021/07/10 02:31:51;;;;;;;18.00;14.52;;;15.70;85.40;;;;;;5073634;28;20392;-84
2021/07/10 02:34:16;;;;;;;18.83;14.40;;;15.70;86.10;;;;;;5087191;28;20024;-84
2021/07/10 02:36:42;;;;;;;16.05;12.23;;;15.70;86.80;;;;;;5069767;27;20028;-83
2021/07/10 02:39:08;;;;;;;15.35;12.90;;;15.70;86.70;;;;;;5086844;28;20032;-84
2021/07/10 02:41:33;;;;;;;20.92;16.25;;;15.70;86.40;;;;;;5086251;28;20115;-84
2021/07/10 02:43:59;;;;;;;22.63;16.95;;;15.50;86.90;;;;;;5085966;28;20027;-84
2021/07/10 02:46:24;;;;;;;21.77;16.65;;;15.30;86.70;;;;;;5055626;27;20449;-84
2021/07/10 02:48:50;;;;;;;13.55;12.15;;;15.20;85.10;;;;;;5046709;28;20027;-83
2021/07/10 02:51:16;;;;;;;13.55;10.88;;;15.20;86.00;;;;;;5068327;28;20127;-84
2021/07/10 02:53:41;;;;;;;15.35;10.25;;;15.20;86.10;;;;;;5065603;27;20043;-84
2021/07/10 02:56:07;;;;;;;11.43;10.23;;;15.20;86.10;;;;;;5051892;28;20413;-84
2021/07/10 02:58:32;;;;;;;12.68;11.38;;;15.20;86.00;;;;;;5047790;27;20565;-83
2021/07/10 03:00:58;;;;;;;14.00;10.40;;;15.20;86.60;;;;;;5069683;28;20039;-84
2021/07/10 03:03:24;;;;;;;14.98;10.52;;;15.20;87.20;;;;;;5085038;28;20032;-84
2021/07/10 03:05:50;;;;;;;15.40;13.13;;;15.20;87.10;;;;;;5084805;28;20066;-84
2021/07/10 03:08:15;;;;;;;19.55;15.10;;;15.20;87.40;;;;;;5067558;28;20043;-84
2021/07/10 03:10:42;;;;;;;16.23;13.75;;;15.10;88.00;;;;;;5066789;28;20032;-84
2021/07/10 03:13:07;;;;;;;15.57;12.77;;;15.10;88.00;;;;;;5069363;28;20035;-83
2021/07/10 03:15:33;;;;;;;16.67;12.05;;;15.00;87.70;;;;;;5068096;27;20032;-84
2021/07/10 03:17:59;;;;;;;19.17;15.30;;;15.10;88.80;;;;;;5071540;28;20412;-83
2021/07/10 03:20:24;;;;;;;11.55;10.00;;;15.00;87.70;;;;;;5046835;27;20026;-84
2021/07/10 03:22:50;;;;;;;17.48;13.98;;;15.00;87.70;;;;;;5068568;28;20032;-83
2021/07/10 03:25:15;;;;;;;17.30;13.35;;;14.90;88.80;;;;;;5067667;28;20039;-83
2021/07/10 03:27:42;;;;;;;18.27;14.80;;;14.80;89.00;;;;;;5068146;28;20051;-84
2021/07/10 03:30:08;;;;;;;13.50;12.07;;;14.80;89.40;;;;;;5088702;28;20515;-83
2021/07/10 03:32:34;;;;;;;16.50;14.27;;;14.90;89.90;;;;;;5063786;28;20348;-84
2021/07/10 03:34:59;;;;;;;16.02;14.13;;;14.90;89.60;;;;;;5082937;28;20058;-83
2021/07/10 03:37:25;;;;;;;15.30;12.20;;;14.80;88.90;;;;;;5066729;27;20577;-84
2021/07/10 03:39:51;;;;;;;19.50;16.52;;;14.80;88.80;;;;;;5069097;28;20594;-84
2021/07/10 03:42:16;;;;;;;16.55;13.32;;;14.80;90.30;;;;;;5054974;28;20032;-84
2021/07/10 03:44:42;;;;;;;19.42;14.90;;;14.80;89.60;;;;;;5066850;28;20098;-83
2021/07/10 03:47:07;;;;;;;15.32;13.35;;;14.70;89.50;;;;;;5052932;28;20032;-83
2021/07/10 03:49:33;;;;;;;20.40;15.25;;;14.70;90.00;;;;;;5066922;28;20036;-83
2021/07/10 03:51:58;;;;;;;20.35;16.58;;;14.60;90.10;;;;;;5071451;28;20054;-84
2021/07/10 03:54:24;;;;;;;22.20;15.25;;;14.50;90.30;;;;;;5070004;27;20024;-84
2021/07/10 03:56:49;;;;;;;15.93;12.77;;;14.50;89.10;;;;;;5088407;28;20051;-83
2021/07/10 03:59:15;;;;;;;17.55;14.43;;;14.50;90.20;;;;;;5072473;28;20039;-84
2021/07/10 04:01:45;;;;;;;15.65;12.50;;;14.50;89.60;;;;;;5089427;28;20032;-84
2021/07/10 04:04:10;;;;;;;22.48;17.17;;;14.50;90.00;;;;;;5073030;28;20040;-83
2021/07/10 04:06:36;;;;;;;18.13;14.32;;;14.40;89.50;;;;;;5073306;28;20519;-84
2021/07/10 04:09:01;;;;;;;14.52;12.63;;;14.40;89.30;;;;;;5088311;28;20092;-83
2021/07/10 04:11:28;;;;;;;13.23;11.20;;;14.40;89.40;;;;;;5068619;28;20071;-84
2021/07/10 04:13:53;;;;;;;14.43;11.00;;;14.50;90.00;;;;;;5085443;28;20177;-83
2021/07/10 04:16:19;;;;;;;25.10;18.10;;;14.50;90.00;;;;;;5056394;28;20512;-83
2021/07/10 04:18:44;;;;;;;21.52;16.05;;;14.60;90.40;;;;;;5070177;28;20024;-83
2021/07/10 04:21:10;;;;;;;19.75;16.08;;;14.70;90.20;;;;;;5070972;28;20157;-84
2021/07/10 04:23:36;;;;;;;22.38;18.58;;;14.80;89.90;;;;;;5075051;28;20128;-83
2021/07/10 04:26:01;;;;;;;17.30;14.20;;;14.90;90.30;;;;;;5068370;28;20028;-83
2021/07/10 04:28:27;;;;;;;26.15;20.65;;;14.90;90.50;;;;;;5083358;27;20032;-83
2021/07/10 04:30:52;;;;;;;30.25;21.67;;;15.00;90.20;;;;;;5089224;28;20035;-84
2021/07/10 04:33:18;;;;;;;29.13;21.98;;;15.10;90.20;;;;;;5055727;28;20043;-83
2021/07/10 04:35:43;;;;;;;32.72;21.23;;;15.20;90.30;;;;;;5072384;28;20388;-84
2021/07/10 04:38:09;;;;;;;29.42;21.27;;;15.20;90.30;;;;;;5069863;28;20051;-85
2021/07/10 04:40:34;;;;;;;19.38;16.38;;;15.40;90.20;;;;;;5068867;28;20459;-83
2021/07/10 04:43:00;;;;;;;20.15;12.55;;;15.60;90.00;;;;;;5068365;28;20020;-83
2021/07/10 04:45:25;;;;;;;17.65;14.70;;;15.70;90.00;;;;;;5051733;28;20036;-83
2021/07/10 04:47:51;;;;;;;17.35;12.30;;;15.90;89.90;;;;;;5054967;28;20036;-83
2021/07/10 04:50:17;;;;;;;25.70;19.17;;;16.00;89.80;;;;;;5068932;28;20111;-84
2021/07/10 04:52:43;;;;;;;26.25;19.30;;;16.10;90.00;;;;;;5089680;27;20056;-84
2021/07/10 04:55:09;;;;;;;23.98;18.75;;;16.30;90.10;;;;;;5057179;28;20028;-83
2021/07/10 04:57:35;;;;;;;30.50;20.45;;;16.50;89.80;;;;;;5067018;28;20074;-83
2021/07/10 05:00:01;;;;;;;22.88;16.70;;;16.60;90.10;;;;;;5055355;28;20468;-82
2021/07/10 05:02:26;;;;;;;23.92;16.95;;;16.70;89.30;;;;;;5070152;28;20032;-83
2021/07/10 05:04:52;;;;;;;20.63;15.60;;;16.90;88.20;;;;;;5088338;28;20040;-84
2021/07/10 05:07:17;;;;;;;11.55;8.90;;;17.10;88.90;;;;;;5070847;28;20097;-83
2021/07/10 05:09:43;;;;;;;16.95;14.35;;;17.30;86.20;;;;;;5085313;28;20490;-84
2021/07/10 05:12:08;;;;;;;17.73;13.55;;;17.50;87.70;;;;;;5070314;28;20032;-83
2021/07/10 05:14:34;;;;;;;18.33;12.77;;;17.70;87.90;;;;;;5068959;27;20400;-84
2021/07/10 05:17:00;;;;;;;21.60;13.80;;;17.90;86.80;;;;;;5070469;28;20055;-83
2021/07/10 05:19:25;;;;;;;19.63;14.27;;;18.10;85.80;;;;;;5087062;28;20039;-82
2021/07/10 05:21:51;;;;;;;20.85;15.23;;;18.20;83.70;;;;;;5069028;28;20032;-83
2021/07/10 05:24:16;;;;;;;19.90;15.32;;;18.40;87.40;;;;;;5051753;28;20043;-83
2021/07/10 05:26:42;;;;;;;15.98;13.20;;;18.60;87.50;;;;;;5070308;28;20042;-83
2021/07/10 05:29:07;;;;;;;17.60;11.80;;;18.90;87.20;;;;;;5071262;28;20380;-83
2021/07/10 05:31:33;;;;;;;19.92;13.57;;;19.10;83.20;;;;;;5072137;28;20480;-83
2021/07/10 05:33:58;;;;;;;18.52;13.73;;;19.30;87.80;;;;;;5067587;28;20314;-84
2021/07/10 05:36:24;;;;;;;15.85;13.07;;;19.50;87.90;;;;;;5051623;28;20028;-84
2021/07/10 05:38:50;;;;;;;17.05;13.20;;;19.80;87.50;;;;;;5072581;28;20062;-83
2021/07/10 05:41:15;;;;;;;18.75;14.63;;;20.00;86.40;;;;;;5050010;28;20605;-82
2021/07/10 05:43:41;;;;;;;18.85;12.95;;;20.30;87.60;;;;;;5071555;28;20034;-83
2021/07/10 05:46:06;;;;;;;18.02;14.00;;;20.60;87.70;;;;;;5071403;28;20028;-83
2021/07/10 05:48:33;;;;;;;17.83;10.48;;;20.80;87.90;;;;;;5086421;28;20552;-83
2021/07/10 05:50:58;;;;;;;15.98;13.18;;;21.00;82.80;;;;;;5086411;28;20099;-84
2021/07/10 05:53:24;;;;;;;14.95;12.35;;;21.10;88.00;;;;;;5053289;28;20126;-84
2021/07/10 05:55:49;;;;;;;9.68;8.07;;;21.40;87.90;;;;;;5073015;27;20028;-83
2021/07/10 05:58:15;;;;;;;9.95;7.25;;;21.50;84.00;;;;;;5090417;28;20025;-84
2021/07/10 06:00:41;;;;;;;19.35;13.20;;;21.70;80.70;;;;;;5071112;28;20062;-84
2021/07/10 06:03:07;;;;;;;15.10;11.70;;;21.60;87.40;;;;;;5053194;28;20550;-84
2021/07/10 06:05:33;;;;;;;16.52;12.85;;;21.90;86.50;;;;;;5051974;27;20024;-84
2021/07/10 06:07:58;;;;;;;19.38;12.73;;;22.10;87.10;;;;;;5086708;28;20028;-84
2021/07/10 06:10:24;;;;;;;14.70;11.32;;;22.20;86.40;;;;;;5052690;28;20053;-84
2021/07/10 06:12:50;;;;;;;13.35;11.20;;;22.30;86.10;;;;;;5071994;27;20152;-83
2021/07/10 06:15:16;;;;;;;18.23;12.82;;;22.50;86.10;;;;;;5051264;28;20142;-84
2021/07/10 06:17:42;;;;;;;13.88;10.70;;;22.60;86.40;;;;;;5067319;28;20111;-84
2021/07/10 06:20:09;;;;;;;16.05;11.63;;;22.80;86.10;;;;;;5087927;28;20020;-84
2021/07/10 06:22:35;;;;;;;14.85;11.48;;;22.90;85.70;;;;;;5069524;27;20024;-84
2021/07/10 06:25:01;;;;;;;16.65;10.60;;;23.00;85.00;;;;;;5068295;28;20181;-83
2021/07/10 06:27:26;;;;;;;12.73;10.82;;;23.20;84.60;;;;;;5053053;28;20040;-82
2021/07/10 06:29:52;;;;;;;11.20;7.78;;;23.20;84.40;;;;;;5072549;28;20113;-84
2021/07/10 06:32:18;;;;;;;11.57;9.85;;;23.20;84.50;;;;;;5068973;28;20047;-84
2021/07/10 06:34:43;;;;;;;9.60;8.57;;;23.20;84.30;;;;;;5070860;27;20060;-84
2021/07/10 06:37:09;;;;;;;11.10;9.32;;;23.20;83.90;;;;;;5067774;28;20399;-83
2021/07/10 06:39:34;;;;;;;14.80;9.15;;;23.30;84.40;;;;;;5068900;28;20024;-84
2021/07/10 06:42:00;;;;;;;10.23;8.60;;;23.40;83.50;;;;;;5068125;28;20036;-83
2021/07/10 06:44:25;;;;;;;10.65;8.95;;;23.50;83.50;;;;;;5065581;28;20138;-84
2021/07/10 06:46:51;;;;;;;13.57;8.98;;;23.50;83.50;;;;;;5052655;28;20046;-84
2021/07/10 06:49:16;;;;;;;11.48;9.20;;;23.50;82.60;;;;;;5068838;28;20492;-84
2021/07/10 06:51:42;;;;;;;13.45;10.43;;;23.60;82.80;;;;;;5067259;28;20491;-85
2021/07/10 06:54:08;;;;;;;9.20;7.93;;;23.90;82.60;;;;;;5068037;28;20956;-85
2021/07/10 06:56:34;;;;;;;11.65;8.45;;;23.80;80.00;;;;;;5064432;28;20032;-85
2021/07/10 06:59:00;;;;;;;11.18;8.82;;;23.80;79.20;;;;;;5052224;28;20040;-84
2021/07/10 07:01:27;;;;;;;11.07;7.65;;;24.10;82.40;;;;;;5069834;28;20047;-85
2021/07/10 07:03:53;;;;;;;12.25;8.40;;;24.20;80.00;;;;;;5070956;28;20035;-85
2021/07/10 07:06:19;;;;;;;12.18;8.88;;;24.30;81.40;;;;;;5067200;28;20036;-84
2021/07/10 07:08:44;;;;;;;12.05;8.70;;;24.40;81.00;;;;;;5066166;28;20040;-83
2021/07/10 07:11:11;;;;;;;13.15;8.35;;;24.50;81.10;;;;;;5051771;28;20028;-84
2021/07/10 07:13:36;;;;;;;10.65;7.95;;;24.60;81.00;;;;;;5051119;28;20060;-84
2021/07/10 07:16:02;;;;;;;10.32;8.55;;;24.80;78.00;;;;;;5068957;28;20060;-85
2021/07/10 07:18:28;;;;;;;9.73;7.82;;;25.00;79.60;;;;;;5083287;28;20036;-80
2021/07/10 07:20:53;;;;;;;15.00;8.40;;;25.10;79.30;;;;;;5068746;28;20028;-79
2021/07/10 07:23:19;;;;;;;12.98;8.70;;;25.10;79.20;;;;;;5066225;28;20032;-79
2021/07/10 07:25:44;;;;;;;10.55;6.97;;;25.30;77.00;;;;;;5085614;27;20093;-79
2021/07/10 07:28:10;;;;;;;12.88;8.75;;;25.30;77.70;;;;;;5083638;28;20047;-80
2021/07/10 07:30:35;;;;;;;8.20;7.28;;;25.50;79.10;;;;;;5055400;28;20114;-79
2021/07/10 07:33:01;;;;;;;12.02;7.80;;;25.30;76.40;;;;;;5077467;28;20066;-79
2021/07/10 07:35:27;;;;;;;13.70;8.95;;;25.60;79.10;;;;;;5068020;28;20056;-79
2021/07/10 07:37:52;;;;;;;11.93;8.45;;;25.90;76.00;;;;;;5056362;28;20024;-80
2021/07/10 07:40:18;;;;;;;11.00;7.35;;;26.30;76.60;;;;;;5071974;28;20427;-80
2021/07/10 07:42:44;;;;;;;14.85;9.75;;;26.70;76.10;;;;;;5072309;27;20465;-79
2021/07/10 07:45:10;;;;;;;10.45;7.15;;;27.10;75.10;;;;;;5053829;28;20036;-80
2021/07/10 07:47:36;;;;;;;11.73;8.02;;;27.00;73.50;;;;;;5089866;27;20120;-81
2021/07/10 07:50:03;;;;;;;10.00;7.50;;;27.20;74.10;;;;;;5076052;28;20040;-81
2021/07/10 07:52:28;;;;;;;10.80;7.60;;;27.30;74.10;;;;;;5074155;28;20039;-82
2021/07/10 07:54:54;;;;;;;10.57;7.93;;;27.50;73.30;;;;;;5052609;28;20024;-80
2021/07/10 07:57:19;;;;;;;10.68;8.45;;;27.20;74.80;;;;;;5074552;28;20040;-81
2021/07/10 07:59:45;;;;;;;14.65;9.23;;;27.40;71.60;;;;;;5071899;28;20051;-82
2021/07/10 08:02:10;;;;;;;9.05;7.60;;;27.20;69.20;;;;;;5057514;28;20047;-81
2021/07/10 08:04:36;;;;;;;10.95;7.38;;;26.70;74.00;;;;;;5073943;28;20044;-81
2021/07/10 08:07:03;;;;;;;10.95;7.45;;;27.50;73.50;;;;;;5074046;28;20020;-81
2021/07/10 08:09:28;;;;;;;8.18;7.38;;;28.20;71.00;;;;;;5073145;28;20092;-80
2021/07/10 08:11:55;;;;;;;13.02;8.30;;;28.40;72.70;;;;;;5073369;27;20051;-82
2021/07/10 08:14:22;;;;;;;9.88;8.27;;;28.80;70.50;;;;;;5071905;28;20036;-80
2021/07/10 08:16:47;;;;;;;11.80;8.07;;;29.00;69.30;;;;;;5070117;28;20040;-79
2021/07/10 08:19:13;;;;;;;8.05;7.10;;;29.30;68.70;;;;;;5088839;28;20123;-79
2021/07/10 08:21:39;;;;;;;7.25;5.65;;;29.40;67.90;;;;;;5068549;28;20028;-79
2021/07/10 08:24:04;;;;;;;7.03;5.20;;;28.90;65.50;;;;;;5071313;28;20035;-80
2021/07/10 08:26:30;;;;;;;5.95;4.93;;;29.20;67.60;;;;;;5072002;28;20093;-78
2021/07/10 08:28:56;;;;;;;6.63;5.90;;;29.60;65.20;;;;;;5052225;28;20024;-78
2021/07/10 08:31:21;;;;;;;6.90;6.15;;;29.60;64.40;;;;;;5091675;28;20028;-78
2021/07/10 08:33:47;;;;;;;6.60;5.78;;;29.60;63.70;;;;;;5072413;28;20040;-78
2021/07/10 08:36:12;;;;;;;8.45;6.00;;;29.50;62.90;;;;;;5091895;28;20107;-77
2021/07/10 08:38:38;;;;;;;9.02;6.47;;;29.30;65.70;;;;;;5054454;28;20476;-77
2021/07/10 08:41:06;;;;;;;8.80;6.22;;;29.60;65.00;;;;;;5070744;28;20028;-77
2021/07/10 08:43:32;;;;;;;8.30;5.90;;;30.10;61.40;;;;;;5088023;28;20040;-77
2021/07/10 08:45:57;;;;;;;10.13;6.70;;;29.90;61.80;;;;;;5070696;28;20036;-77
2021/07/10 08:48:23;;;;;;;7.03;6.13;;;30.20;61.70;;;;;;5070875;28;20021;-77
2021/07/10 08:50:48;;;;;;;5.88;5.25;;;30.30;61.10;;;;;;5057374;28;20028;-77
2021/07/10 08:53:14;;;;;;;6.82;5.53;;;30.30;60.80;;;;;;5071024;28;20034;-77
2021/07/10 08:55:40;;;;;;;7.50;6.03;;;30.20;61.30;;;;;;5070689;28;20020;-76
2021/07/10 08:58:05;;;;;;;7.65;6.45;;;30.10;61.40;;;;;;5088386;28;20365;-76
2021/07/10 09:00:33;;;;;;;7.82;5.65;;;30.30;60.60;;;;;;5087722;28;20081;-76
2021/07/10 09:02:59;;;;;;;6.57;5.35;;;30.30;60.30;;;;;;5086341;28;20111;-75
2021/07/10 09:05:25;;;;;;;6.75;5.28;;;30.60;59.40;;;;;;5072681;28;20143;-76
2021/07/10 09:08:09;;;;;;;6.70;5.22;;;30.90;58.90;;;;;;5070872;28;20498;-75
2021/07/10 09:10:35;;;;;;;7.45;5.63;;;30.60;59.00;;;;;;5101769;27;20059;-75
2021/07/10 09:13:01;;;;;;;7.10;4.65;;;31.00;58.50;;;;;;5055531;28;20395;-76
2021/07/10 09:15:27;;;;;;;5.72;4.43;;;30.80;58.30;;;;;;5069559;28;20435;-75
2021/07/10 09:17:53;;;;;;;5.78;4.85;;;30.90;58.30;;;;;;5066252;28;20115;-76
2021/07/10 09:20:23;;;;;;;6.43;4.90;;;31.50;57.00;;;;;;5086333;28;20020;-75
2021/07/10 09:22:49;;;;;;;7.03;4.40;;;31.50;57.30;;;;;;5069698;28;20040;-75
2021/07/10 09:25:23;;;;;;;4.78;4.38;;;31.70;56.20;;;;;;5069895;28;20044;-75
2021/07/10 09:27:50;;;;;;;9.70;4.93;;;31.60;57.00;;;;;;5067995;28;20189;-76
2021/07/10 09:30:16;;;;;;;6.78;5.93;;;31.50;56.20;;;;;;5067333;28;20028;-75
2021/07/10 09:32:41;;;;;;;8.50;5.45;;;31.90;55.50;;;;;;5068983;28;20039;-76
2021/07/10 09:35:10;;;;;;;7.70;5.18;;;32.10;55.30;;;;;;5089910;28;20040;-75
2021/07/10 09:37:38;;;;;;;4.30;3.90;;;32.40;54.50;;;;;;5069168;28;20085;-75
2021/07/10 09:40:11;;;;;;;4.80;4.05;;;32.30;54.90;;;;;;5071010;28;20059;-76
2021/07/10 09:42:40;;;;;;;6.78;3.90;;;32.20;55.10;;;;;;5083621;28;20118;-75
2021/07/10 09:45:14;;;;;;;5.72;4.45;;;32.20;55.40;;;;;;5085924;28;20123;-75
2021/07/10 09:47:41;;;;;;;9.65;5.47;;;32.30;54.30;;;;;;5089894;28;20572;-76
2021/07/10 09:50:07;;;;;;;6.95;4.22;;;32.40;55.00;;;;;;5070020;28;20636;-75
2021/07/10 09:52:35;;;;;;;9.57;5.65;;;32.60;54.10;;;;;;5069628;28;20453;-76
2021/07/10 09:55:01;;;;;;;8.93;5.15;;;32.60;53.90;;;;;;5077425;28;20172;-75
2021/07/10 09:57:31;;;;;;;4.97;3.92;;;32.80;53.40;;;;;;5067002;28;20410;-74
2021/07/10 10:00:09;;;;;;;4.70;4.25;;;32.90;53.10;;;;;;5084805;28;20031;-75
2021/07/10 10:02:44;;;;;;;6.45;4.90;;;33.00;53.10;;;;;;5087127;27;20257;-75
2021/07/10 10:05:20;;;;;;;6.80;4.72;;;32.90;53.30;;;;;;5055239;28;20089;-75
2021/07/10 10:07:55;;;;;;;5.82;4.28;;;33.10;53.30;;;;;;5085575;28;20218;-75
2021/07/10 10:10:24;;;;;;;6.55;5.00;;;33.20;53.40;;;;;;5085217;28;20463;-75
2021/07/10 10:13:04;;;;;;;4.97;4.28;;;33.20;53.30;;;;;;5085139;28;20032;-74
2021/07/10 10:16:04;;;;;;;6.15;4.20;;;33.30;52.30;;;;;;5083939;28;20120;-76
2021/07/10 10:18:30;;;;;;;6.70;4.68;;;33.50;51.60;;;;;;5052885;27;20028;-76
2021/07/10 10:20:55;;;;;;;6.28;4.63;;;33.30;52.30;;;;;;5069566;28;20487;-76
2021/07/10 10:23:21;;;;;;;7.15;4.30;;;33.40;51.60;;;;;;5082013;28;20028;-75
2021/07/10 10:25:47;;;;;;;4.85;4.35;;;33.50;51.00;;;;;;5085511;28;20468;-75
2021/07/10 10:28:19;;;;;;;5.80;4.47;;;33.60;51.50;;;;;;5067325;28;20032;-75
2021/07/10 10:30:49;;;;;;;6.15;4.68;;;33.60;50.50;;;;;;5049673;28;20342;-75
2021/07/10 10:33:14;;;;;;;8.45;5.70;;;33.70;50.70;;;;;;5086961;28;20127;-75
2021/07/10 10:35:40;;;;;;;6.13;4.32;;;33.80;50.00;;;;;;5072551;28;20111;-75
2021/07/10 10:38:05;;;;;;;8.18;5.65;;;33.90;50.00;;;;;;5068999;28;20619;-76
2021/07/10 10:40:31;;;;;;;5.60;4.20;;;33.90;49.80;;;;;;5086514;28;20559;-75
2021/07/10 10:42:58;;;;;;;6.00;4.43;;;33.90;50.00;;;;;;5069160;28;20056;-76
2021/07/10 10:45:42;;;;;;;5.70;4.38;;;33.90;50.00;;;;;;5085034;28;20533;-75
2021/07/10 10:48:07;;;;;;;6.63;4.60;;;33.90;49.60;;;;;;5072597;28;20036;-75
2021/07/10 10:50:39;;;;;;;5.07;4.50;;;34.00;49.70;;;;;;5069125;28;20374;-76
2021/07/10 10:53:06;;;;;;;5.45;4.85;;;33.90;49.60;;;;;;5066347;28;20036;-76
2021/07/10 10:55:31;;;;;;;4.68;4.20;;;33.70;50.70;;;;;;5048837;28;20039;-75
2021/07/10 10:58:15;;;;;;;6.15;4.22;;;33.60;51.30;;;;;;5086386;28;20028;-76
2021/07/10 11:00:43;;;;;;;6.68;4.40;;;33.90;49.80;;;;;;5085776;28;20452;-75
2021/07/10 11:03:13;;;;;;;5.30;4.18;;;33.80;48.90;;;;;;5073282;28;20059;-75
2021/07/10 11:05:41;;;;;;;4.65;4.25;;;33.80;48.90;;;;;;5086276;28;20054;-75
2021/07/10 11:08:19;;;;;;;7.22;4.82;;;33.70;49.10;;;;;;5085413;28;20084;-76
2021/07/10 11:10:53;;;;;;;6.28;4.25;;;33.80;49.20;;;;;;5086586;28;20032;-75
2021/07/10 11:13:35;;;;;;;6.10;4.50;;;33.70;49.90;;;;;;5085339;28;20030;-75
2021/07/10 11:16:10;;;;;;;5.72;4.68;;;33.60;49.80;;;;;;5082715;28;20036;-75
2021/07/10 11:18:49;;;;;;;7.07;5.03;;;33.60;49.00;;;;;;5083112;28;20498;-75
2021/07/10 11:21:38;;;;;;;7.03;4.25;;;33.50;49.10;;;;;;5082851;28;20469;-79
2021/07/10 11:26:56;;;;;;;7.32;5.20;;;33.80;48.70;;;;;;5085154;28;20032;-78
2021/07/10 11:29:26;;;;;;;5.93;5.22;;;33.90;49.00;;;;;;5071830;28;20028;-78
2021/07/10 11:32:16;;;;;;;8.55;6.22;;;34.10;48.30;;;;;;5083356;28;20119;-78
2021/07/10 11:34:42;;;;;;;7.97;5.93;;;34.30;47.50;;;;;;5086196;28;20028;-78
2021/07/10 11:37:12;;;;;;;14.85;6.47;;;34.50;47.40;;;;;;5083813;28;20032;-78
2021/07/10 11:39:38;;;;;;;4.68;4.28;;;34.80;47.30;;;;;;5088967;28;20028;-78
2021/07/10 11:42:41;;;;;;;4.40;3.78;;;34.60;47.20;;;;;;5083513;28;20035;-78
2021/07/10 11:45:12;;;;;;;6.25;4.50;;;34.40;48.40;;;;;;5083056;28;20048;-77
2021/07/10 11:47:50;;;;;;;5.93;3.75;;;34.20;48.20;;;;;;5084612;28;20158;-77
2021/07/10 11:50:24;;;;;;;5.25;4.03;;;34.60;47.30;;;;;;5083606;28;20031;-77
2021/07/10 11:53:02;;;;;;;5.35;3.75;;;34.50;48.00;;;;;;5067773;28;20786;-77
2021/07/10 11:55:32;;;;;;;4.13;3.72;;;34.20;47.80;;;;;;5073283;28;20117;-77
2021/07/10 11:58:04;;;;;;;3.55;3.25;;;34.40;48.20;;;;;;5068198;28;20111;-77
2021/07/10 12:00:29;;;;;;;4.80;4.00;;;35.00;47.80;;;;;;5058726;28;20040;-77
2021/07/10 12:02:55;;;;;;;3.67;3.38;;;35.30;45.60;;;;;;5067535;28;20031;-77
2021/07/10 12:05:21;;;;;;;4.20;3.78;;;35.60;46.00;;;;;;5084869;28;20044;-77
2021/07/10 12:07:54;;;;;;;5.15;4.20;;;35.70;46.80;;;;;;5069654;28;20055;-77
2021/07/10 12:10:23;;;;;;;4.60;4.18;;;36.10;46.80;;;;;;5085650;28;20417;-77
2021/07/10 12:13:12;;;;;;;6.07;3.35;;;36.40;45.50;;;;;;5080986;28;20032;-76
2021/07/10 12:15:40;;;;;;;4.20;3.90;;;36.50;46.90;;;;;;5076043;28;20166;-76
2021/07/10 12:18:06;;;;;;;5.93;4.53;;;36.60;45.70;;;;;;5084342;28;20036;-76
2021/07/10 12:20:34;;;;;;;5.70;3.78;;;37.00;44.30;;;;;;5086723;28;20039;-76
2021/07/10 12:23:01;;;;;;;5.00;3.50;;;37.10;42.90;;;;;;5088167;28;20287;-76
2021/07/10 12:25:31;;;;;;;4.28;3.88;;;37.20;43.20;;;;;;5087203;28;20642;-76
2021/07/10 12:28:03;;;;;;;6.07;3.67;;;37.40;42.60;;;;;;5087819;28;20028;-76
2021/07/10 12:30:57;;;;;;;4.75;3.22;;;37.40;43.80;;;;;;5085433;28;20360;-76
2021/07/10 12:33:45;;;;;;;4.18;3.65;;;36.70;43.80;;;;;;5072659;28;20396;-76
2021/07/10 12:36:13;;;;;;;5.45;3.53;;;37.20;41.70;;;;;;5086940;28;20111;-76
2021/07/10 12:38:54;;;;;;;3.58;3.10;;;37.40;41.20;;;;;;5089428;28;20409;-76